createdAt,value
2023-03-06T00:02:10.614Z,99669.19
2023-03-06T00:07:11.830Z,99658.78
2023-03-06T00:12:13.024Z,99650.47
2023-03-06T00:17:14.224Z,99647.59
2023-03-06T00:22:15.447Z,99639.56
2023-03-06T00:27:16.566Z,99641.59
2023-03-06T00:32:17.793Z,99638.25
2023-03-06T00:37:18.969Z,99632.78
2023-03-06T00:42:20.182Z,99627.09
2023-03-06T00:47:21.320Z,99622.91
2023-03-06T00:52:22.475Z,99608.16
2023-03-06T00:57:23.791Z,99602.94
2023-03-06T01:02:25.079Z,99601.63
2023-03-06T01:07:27.730Z,99600.63
2023-03-06T01:12:28.953Z,99589.72
2023-03-06T01:17:30.167Z,99581.69
2023-03-06T01:22:31.369Z,99581.69
2023-03-06T01:27:32.616Z,99572.63
2023-03-06T01:32:33.886Z,99570.56
2023-03-06T01:37:35.133Z,99557.09
2023-03-06T01:42:36.392Z,99555.25
2023-03-06T01:47:37.569Z,99558.63
2023-03-06T01:52:38.710Z,99549.78
2023-03-06T01:57:39.920Z,99539.66
2023-03-06T02:02:41.216Z,99537.81
2023-03-06T02:07:42.366Z,99538.53
2023-03-06T02:12:46.593Z,99527.69
2023-03-06T02:17:47.769Z,99528.47
2023-03-06T02:22:48.958Z,99518.63
2023-03-06T02:27:50.200Z,99521.22
2023-03-06T02:32:51.374Z,99515.00
2023-03-06T02:37:52.744Z,99507.75
2023-03-06T02:42:56.200Z,99502.31
2023-03-06T02:47:57.414Z,99501.00
2023-03-06T02:52:58.620Z,99497.09
2023-03-06T02:57:59.828Z,99487.50
2023-03-06T03:03:00.955Z,99484.41
2023-03-06T03:08:02.180Z,99482.84
2023-03-06T03:13:03.431Z,99478.44
2023-03-06T03:18:04.652Z,99477.16
2023-03-06T03:23:05.841Z,99471.97
2023-03-06T03:28:07.006Z,99467.81
2023-03-06T03:33:08.138Z,99472.72
2023-03-06T03:38:09.357Z,99462.88
2023-03-06T03:43:10.522Z,99471.16
2023-03-06T03:48:11.658Z,99469.13
2023-03-06T03:53:12.810Z,99464.19
2023-03-06T03:58:14.051Z,99450.19
2023-03-06T04:03:15.266Z,99446.56
2023-03-06T04:08:16.506Z,99446.56
2023-03-06T04:13:19.346Z,99435.19
2023-03-06T04:18:20.781Z,99431.03
2023-03-06T04:23:24.143Z,99425.84
2023-03-06T04:28:25.432Z,99413.91
2023-03-06T04:33:26.693Z,99404.09
2023-03-06T04:38:27.921Z,99398.91
2023-03-06T04:43:29.110Z,99391.13
2023-03-06T04:48:30.277Z,99389.06
2023-03-06T04:53:32.702Z,99383.88
2023-03-06T04:58:33.970Z,99383.38
2023-03-06T05:03:35.102Z,99385.94
2023-03-06T05:08:36.259Z,99378.69
2023-03-06T05:13:37.424Z,99371.94
2023-03-06T05:18:38.889Z,99382.31
2023-03-06T05:23:40.123Z,99379.19
2023-03-06T05:28:41.388Z,99375.34
2023-03-06T05:33:42.601Z,99381.78
2023-03-06T05:38:43.845Z,99380.78
2023-03-06T05:43:45.004Z,99384.38
2023-03-06T05:48:46.934Z,99384.91
2023-03-06T05:53:48.311Z,99381.78
2023-03-06T05:58:50.473Z,99382.31
2023-03-06T06:03:51.652Z,99374.78
2023-03-06T06:08:52.865Z,99377.63
2023-03-06T06:13:54.034Z,99381.03
2023-03-06T06:18:55.226Z,99374.53
2023-03-06T06:23:56.424Z,99376.59
2023-03-06T06:29:00.063Z,99375.59
2023-03-06T06:34:01.512Z,99374.28
2023-03-06T06:39:03.494Z,99375.59
2023-03-06T06:44:05.877Z,99371.16
2023-03-06T06:49:08.445Z,99367.03
2023-03-06T06:54:09.690Z,99370.91
2023-03-06T06:59:16.412Z,99369.88
2023-03-06T07:04:19.075Z,99376.59
2023-03-06T07:09:20.359Z,99379.19
2023-03-06T07:14:21.603Z,99387.50
2023-03-06T07:19:22.799Z,99381.78
2023-03-06T07:24:23.944Z,99386.72
2023-03-06T07:29:25.173Z,99402.53
2023-03-06T07:34:26.427Z,99393.47
2023-03-06T07:39:29.937Z,99392.69
2023-03-06T07:44:31.793Z,99396.06
2023-03-06T07:49:32.975Z,99393.47
2023-03-06T07:54:35.105Z,99395.81
2023-03-06T07:59:36.256Z,99390.09
2023-03-06T08:04:37.429Z,99389.56
2023-03-06T08:09:38.667Z,99394.75
2023-03-06T08:14:39.863Z,99396.81
2023-03-06T08:19:41.065Z,99399.94
2023-03-06T08:24:42.515Z,99396.31
2023-03-06T08:29:43.769Z,99391.38
2023-03-06T08:34:45.558Z,99391.38
2023-03-06T08:39:46.692Z,99390.09
2023-03-06T08:44:47.893Z,99391.63
2023-03-06T08:49:49.148Z,99392.16
2023-03-06T08:54:50.305Z,99391.34
2023-03-06T08:59:51.469Z,99392.13
2023-03-06T09:04:53.874Z,99404.56
2023-03-06T09:09:55.081Z,99394.16
2023-03-06T09:14:56.310Z,99386.31
2023-03-06T09:19:57.514Z,99393.56
2023-03-06T09:24:58.645Z,99390.97
2023-03-06T09:29:59.849Z,99393.03
2023-03-06T09:35:01.066Z,99390.97
2023-03-06T09:40:02.260Z,99396.16
2023-03-06T09:45:03.452Z,99392.03
2023-03-06T09:50:04.963Z,99395.34
2023-03-06T09:55:06.267Z,99399.22
2023-03-06T10:00:08.746Z,99394.50
2023-03-06T10:05:10.628Z,99383.56
2023-03-06T10:10:11.822Z,99378.13
2023-03-06T10:15:13.075Z,99377.38
2023-03-06T10:20:14.292Z,99378.66
2023-03-06T10:25:15.450Z,99371.91
2023-03-06T10:30:16.578Z,99373.97
2023-03-06T10:35:17.783Z,99368.53
2023-03-06T10:40:18.962Z,99380.25
2023-03-06T10:45:20.182Z,99384.16
2023-03-06T10:50:21.453Z,99381.56
2023-03-06T10:55:22.775Z,99383.75
2023-03-06T11:00:23.974Z,99378.59
2023-03-06T11:05:25.198Z,99387.66
2023-03-06T11:10:26.333Z,99390.53
2023-03-06T11:15:27.553Z,99393.59
2023-03-06T11:20:31.772Z,99395.97
2023-03-06T11:25:39.495Z,99392.13
2023-03-06T11:30:40.672Z,99392.13
2023-03-06T11:35:41.898Z,99391.56
2023-03-06T11:40:43.080Z,99391.03
2023-03-06T11:45:44.241Z,99394.44
2023-03-06T11:50:45.366Z,99384.03
2023-03-06T11:55:46.543Z,99380.63
2023-03-06T12:00:47.718Z,99375.69
2023-03-06T12:05:48.965Z,99368.88
2023-03-06T12:10:51.880Z,99364.72
2023-03-06T12:15:53.528Z,99358.78
2023-03-06T12:20:54.719Z,99371.22
2023-03-06T12:25:55.936Z,99356.63
2023-03-06T12:30:57.145Z,99362.88
2023-03-06T12:35:58.359Z,99352.38
2023-03-06T12:40:59.595Z,99354.41
2023-03-06T12:46:00.868Z,99351.31
2023-03-06T12:51:02.137Z,99354.19
2023-03-06T12:56:03.393Z,99349.22
2023-03-06T13:01:07.711Z,99334.94
2023-03-06T13:06:08.903Z,99346.16
2023-03-06T13:11:11.203Z,99339.94
2023-03-06T13:16:12.356Z,99341.44
2023-03-06T13:21:13.557Z,99328.97
2023-03-06T13:26:14.749Z,99326.63
2023-03-06T13:31:26.860Z,99332.88
2023-03-06T13:36:28.409Z,99328.25
2023-03-06T13:41:29.654Z,99327.50
2023-03-06T13:46:30.991Z,99314.94
2023-03-06T13:51:32.192Z,99320.38
2023-03-06T13:56:33.376Z,99325.34
2023-03-06T14:01:34.588Z,99324.31
2023-03-06T14:06:35.724Z,99317.97
2023-03-06T14:11:37.253Z,99314.91
2023-03-06T14:16:49.412Z,99300.34
2023-03-06T14:21:51.328Z,99297.16
2023-03-06T14:26:52.522Z,99287.78
2023-03-06T14:31:53.733Z,99281.97
2023-03-06T14:36:54.999Z,99295.91
2023-03-06T14:41:56.176Z,99294.25
2023-03-06T14:46:57.344Z,99298.31
2023-03-06T14:52:00.451Z,99297.56
2023-03-06T14:57:01.673Z,99299.41
2023-03-06T15:02:03.349Z,99289.28
2023-03-06T15:07:04.619Z,99281.91
2023-03-06T15:12:07.910Z,99281.47
2023-03-06T15:17:09.114Z,99275.34
2023-03-06T15:22:10.325Z,99261.59
2023-03-06T15:27:11.541Z,99252.78
2023-03-06T15:32:12.821Z,99258.78
2023-03-06T15:37:14.053Z,99263.63
2023-03-06T15:42:15.311Z,99262.03
2023-03-06T15:47:16.493Z,99256.81
2023-03-06T15:52:17.733Z,99250.19
2023-03-06T15:57:18.921Z,99249.56
2023-03-06T16:02:20.111Z,99240.28
2023-03-06T16:07:21.310Z,99244.84
2023-03-06T16:12:22.785Z,99230.91
2023-03-06T16:17:24.001Z,99228.13
2023-03-06T16:22:25.213Z,99228.66
2023-03-06T16:27:26.351Z,99218.28
2023-03-06T16:32:28.818Z,99211.56
2023-03-06T16:37:30.120Z,99210.25
2023-03-06T16:42:31.282Z,99203.03
2023-03-06T16:47:32.519Z,99203.88
2023-03-06T16:52:33.688Z,99199.22
2023-03-06T16:57:35.801Z,99197.69
2023-03-06T17:02:37.123Z,99202.16
2023-03-06T17:07:38.570Z,99168.63
2023-03-06T17:12:39.730Z,99195.25
2023-03-06T17:17:40.965Z,99190.81
2023-03-06T17:22:42.135Z,99192.16
2023-03-06T17:27:43.267Z,99189.59
2023-03-06T17:32:44.439Z,99184.69
2023-03-06T17:37:45.656Z,99188.06
2023-03-06T17:42:46.841Z,99180.84
2023-03-06T17:47:49.134Z,99173.38
2023-03-06T17:52:50.415Z,99176.78
2023-03-06T17:57:51.578Z,99178.34
2023-03-06T18:02:53.260Z,99177.34
2023-03-06T18:07:54.644Z,99135.47
2023-03-06T18:12:56.586Z,99179.69
2023-03-06T18:17:59.079Z,99169.31
2023-03-06T18:23:03.424Z,99174.78
2023-03-06T18:28:05.965Z,99174.25
2023-03-06T18:33:07.133Z,99168.78
2023-03-06T18:38:08.333Z,99164.13
2023-03-06T18:43:09.534Z,99160.75
2023-03-06T18:48:12.663Z,99157.88
2023-03-06T18:53:13.876Z,99151.16
2023-03-06T18:58:15.111Z,99151.16
2023-03-06T19:03:16.294Z,99145.19
2023-03-06T19:08:17.676Z,99135.34
2023-03-06T19:13:18.833Z,99135.56
2023-03-06T19:18:20.098Z,99126.72
2023-03-06T19:23:21.317Z,99126.16
2023-03-06T19:28:22.553Z,99127.19
2023-03-06T19:33:23.685Z,99118.88
2023-03-06T19:38:24.876Z,99105.41
2023-03-06T19:43:26.077Z,99100.97
2023-03-06T19:48:27.367Z,99102.03
2023-03-06T19:53:28.572Z,99088.28
2023-03-06T19:58:29.751Z,99097.63
2023-03-06T20:03:31.016Z,99091.13
2023-03-06T20:08:32.194Z,99083.34
2023-03-06T20:13:35.386Z,99074.22
2023-03-06T20:18:36.576Z,99070.06
2023-03-06T20:23:38.073Z,99065.16
2023-03-06T20:28:39.482Z,99064.09
2023-03-06T20:33:40.679Z,99051.09
2023-03-06T20:38:41.891Z,99053.44
2023-03-06T20:43:43.043Z,99037.31
2023-03-06T20:48:44.288Z,99035.91
2023-03-06T20:53:45.460Z,99045.22
2023-03-06T20:58:46.622Z,99036.47
2023-03-06T21:03:47.841Z,99047.13
2023-03-06T21:08:49.022Z,99033.94
2023-03-06T21:13:50.649Z,99027.97
2023-03-06T21:18:51.907Z,99028.28
2023-03-06T21:23:53.127Z,99019.06
2023-03-06T21:28:54.388Z,99011.84
2023-03-06T21:33:55.820Z,99000.78
2023-03-06T21:38:57.124Z,98988.94
2023-03-06T21:43:58.398Z,98989.00
2023-03-06T21:48:59.706Z,98982.28
2023-03-06T21:54:01.981Z,98976.91
2023-03-06T21:59:03.139Z,98977.47
2023-03-06T22:04:04.702Z,98957.31
2023-03-06T22:09:05.952Z,98949.53
2023-03-06T22:14:07.084Z,98940.72
2023-03-06T22:19:08.258Z,98939.13
2023-03-06T22:24:09.499Z,98931.84
2023-03-06T22:29:10.711Z,98915.78
2023-03-06T22:34:11.899Z,98910.59
2023-03-06T22:39:13.324Z,98899.69
2023-03-06T22:44:14.486Z,98884.63
2023-03-06T22:49:16.813Z,98874.78
2023-03-06T22:54:17.969Z,98866.22
2023-03-06T22:59:19.217Z,98869.59
2023-03-06T23:04:20.488Z,98867.50
2023-03-06T23:09:21.722Z,98860.22
2023-03-06T23:14:22.974Z,98862.56
2023-03-06T23:19:24.217Z,98852.69
2023-03-06T23:24:25.401Z,98854.97
2023-03-06T23:29:26.603Z,98851.28
2023-03-06T23:34:27.789Z,98837.78
2023-03-06T23:39:29.066Z,98828.88
2023-03-06T23:44:30.265Z,98827.03
2023-03-06T23:49:31.412Z,98823.88
2023-03-06T23:54:34.163Z,98826.19
2023-03-06T23:59:35.339Z,98828.25
